createdAt,value
2017-09-20T00:01:06.115Z,90.96
2017-09-20T00:03:34.455Z,91.65
2017-09-20T00:06:02.842Z,91.44
2017-09-20T00:08:31.160Z,92.04
2017-09-20T00:10:59.477Z,92.00
2017-09-20T00:13:27.779Z,92.05
2017-09-20T00:15:56.094Z,92.58
2017-09-20T00:18:24.396Z,92.44
2017-09-20T00:20:53.478Z,92.54
2017-09-20T00:23:22.550Z,92.54
2017-09-20T00:25:50.887Z,92.38
2017-09-20T00:28:19.203Z,92.49
2017-09-20T00:30:47.510Z,92.28
2017-09-20T00:33:16.605Z,91.95
2017-09-20T00:35:45.674Z,91.78
2017-09-20T00:38:13.994Z,91.38
2017-09-20T00:40:42.309Z,90.93
2017-09-20T00:43:10.632Z,90.52
2017-09-20T00:45:38.955Z,90.03
2017-09-20T00:48:07.287Z,89.71
2017-09-20T00:50:36.367Z,89.45
2017-09-20T00:53:04.703Z,89.27
2017-09-20T00:55:33.073Z,88.98
2017-09-20T00:58:01.381Z,88.96
2017-09-20T01:00:29.702Z,89.10
2017-09-20T01:02:58.787Z,89.34
2017-09-20T01:05:27.867Z,89.60
2017-09-20T01:07:56.183Z,89.55
2017-09-20T01:10:24.513Z,89.56
2017-09-20T01:12:52.831Z,89.55
2017-09-20T01:15:21.166Z,89.32
2017-09-20T01:17:49.503Z,89.30
2017-09-20T01:20:35.634Z,89.29
2017-09-20T01:23:21.653Z,89.22
2017-09-20T01:25:49.985Z,89.33
2017-09-20T01:28:18.300Z,89.62
2017-09-20T01:30:46.618Z,89.62
2017-09-20T01:33:14.941Z,89.78
2017-09-20T01:35:43.258Z,89.63
2017-09-20T01:38:12.357Z,89.66
2017-09-20T01:40:40.677Z,89.77
2017-09-20T01:43:09.011Z,89.79
2017-09-20T01:45:38.082Z,89.55
2017-09-20T01:48:06.451Z,89.26
2017-09-20T01:50:34.761Z,89.21
2017-09-20T01:53:03.838Z,88.99
2017-09-20T01:55:32.924Z,88.94
2017-09-20T01:58:01.254Z,88.57
2017-09-20T02:00:29.577Z,88.80
2017-09-20T02:02:57.894Z,88.91
2017-09-20T02:05:26.253Z,88.93
2017-09-20T02:07:55.328Z,88.83
2017-09-20T02:10:23.656Z,88.85
2017-09-20T02:12:51.976Z,88.54
2017-09-20T02:15:20.415Z,88.60
2017-09-20T02:17:48.739Z,88.34
2017-09-20T02:20:17.059Z,88.57
2017-09-20T02:22:45.382Z,88.40
2017-09-20T02:25:13.694Z,88.62
2017-09-20T02:27:42.785Z,88.92
2017-09-20T02:30:11.859Z,88.99
2017-09-20T02:32:40.183Z,89.31
2017-09-20T02:35:08.504Z,89.11
2017-09-20T02:37:36.818Z,89.25
2017-09-20T02:40:05.905Z,88.99
2017-09-20T02:42:35.042Z,88.98
2017-09-20T02:45:03.358Z,88.78
2017-09-20T02:47:31.693Z,88.80
2017-09-20T02:50:00.042Z,88.50
2017-09-20T02:52:29.114Z,88.54
2017-09-20T02:54:57.445Z,88.56
2017-09-20T02:57:25.762Z,88.81
2017-09-20T02:59:54.090Z,88.57
2017-09-20T03:02:22.402Z,89.08
2017-09-20T03:04:50.714Z,89.16
2017-09-20T03:07:19.789Z,89.11
2017-09-20T03:09:48.107Z,89.42
2017-09-20T03:12:16.433Z,89.69
2017-09-20T03:14:44.753Z,90.39
2017-09-20T03:17:13.833Z,90.23
2017-09-20T03:19:42.178Z,90.64
2017-09-20T03:22:10.479Z,90.46
2017-09-20T03:24:38.786Z,90.09
2017-09-20T03:27:07.871Z,89.74
2017-09-20T03:29:36.947Z,89.68
2017-09-20T03:32:05.265Z,89.48
2017-09-20T03:34:33.590Z,89.18
2017-09-20T03:37:02.643Z,89.45
2017-09-20T03:39:30.975Z,89.26
2017-09-20T03:41:59.293Z,88.85
2017-09-20T03:44:27.634Z,88.82
2017-09-20T03:46:56.667Z,88.95
2017-09-20T03:49:24.975Z,88.71
2017-09-20T03:51:53.317Z,88.73
2017-09-20T03:54:21.640Z,88.78
2017-09-20T03:56:49.949Z,88.78
2017-09-20T03:59:19.051Z,88.62
2017-09-20T04:01:48.126Z,88.70
2017-09-20T04:04:16.456Z,88.45
2017-09-20T04:06:44.762Z,88.19
2017-09-20T04:09:13.841Z,88.53
2017-09-20T04:11:42.161Z,88.45
2017-09-20T04:14:11.298Z,88.56
2017-09-20T04:16:39.612Z,88.79
2017-09-20T04:19:07.948Z,88.63
2017-09-20T04:21:36.288Z,88.64
2017-09-20T04:24:05.434Z,88.59
2017-09-20T04:26:33.746Z,88.83
2017-09-20T04:29:02.062Z,89.00
2017-09-20T04:31:30.393Z,89.53
2017-09-20T04:33:58.709Z,89.29
2017-09-20T04:36:27.790Z,89.22
2017-09-20T04:38:56.097Z,89.52
2017-09-20T04:41:24.427Z,90.26
2017-09-20T04:43:52.742Z,90.07
2017-09-20T04:46:21.103Z,90.25
2017-09-20T04:48:50.225Z,89.98
2017-09-20T04:51:18.540Z,90.05
2017-09-20T04:53:46.870Z,90.44
2017-09-20T04:56:15.957Z,90.36
2017-09-20T04:58:45.037Z,90.47
2017-09-20T05:01:13.345Z,90.37
2017-09-20T05:03:41.660Z,90.68
2017-09-20T05:06:09.978Z,90.59
2017-09-20T05:08:39.107Z,90.69
2017-09-20T05:11:07.420Z,90.46
2017-09-20T05:13:35.734Z,90.33
2017-09-20T05:16:04.822Z,89.84
2017-09-20T05:18:33.130Z,89.66
2017-09-20T05:21:01.463Z,89.07
2017-09-20T05:23:29.783Z,88.72
2017-09-20T05:25:58.106Z,88.02
2017-09-20T05:28:26.427Z,88.12
2017-09-20T05:30:54.780Z,87.83
2017-09-20T05:33:23.118Z,87.81
2017-09-20T05:35:51.426Z,87.33
2017-09-20T05:38:19.747Z,86.97
2017-09-20T05:40:48.090Z,85.66
2017-09-20T05:43:16.420Z,84.62
2017-09-20T05:45:44.742Z,83.68
2017-09-20T05:48:13.053Z,83.39
2017-09-20T05:50:41.378Z,82.56
2017-09-20T05:53:09.730Z,82.70
2017-09-20T05:55:38.043Z,82.84
2017-09-20T05:58:06.358Z,81.95
2017-09-20T06:00:35.447Z,82.10
2017-09-20T06:03:04.541Z,83.47
2017-09-20T06:05:33.621Z,83.67
2017-09-20T06:08:01.929Z,82.83
2017-09-20T06:10:30.249Z,83.02
2017-09-20T06:12:58.549Z,83.44
2017-09-20T06:15:26.884Z,83.36
2017-09-20T06:17:55.200Z,83.96
2017-09-20T06:20:23.538Z,84.24
2017-09-20T06:22:51.849Z,84.30
2017-09-20T06:25:20.162Z,84.49
2017-09-20T06:27:48.485Z,84.70
2017-09-20T06:30:16.794Z,84.90
2017-09-20T06:32:45.115Z,84.90
2017-09-20T06:35:13.428Z,84.71
2017-09-20T06:37:41.746Z,84.58
2017-09-20T06:40:10.822Z,84.66
2017-09-20T06:42:39.170Z,84.42
2017-09-20T06:45:07.474Z,84.37
2017-09-20T06:47:35.802Z,83.98
2017-09-20T06:50:04.119Z,84.15
2017-09-20T06:52:32.425Z,84.63
2017-09-20T06:55:01.515Z,84.38
2017-09-20T06:57:30.591Z,84.35
2017-09-20T06:59:58.909Z,84.79
2017-09-20T07:02:27.222Z,84.86
2017-09-20T07:04:55.542Z,85.16
2017-09-20T07:07:24.613Z,85.41
2017-09-20T07:09:52.925Z,85.61
2017-09-20T07:12:22.015Z,86.06
2017-09-20T07:14:51.089Z,86.08
2017-09-20T07:17:19.415Z,85.53
2017-09-20T07:19:47.725Z,85.56
2017-09-20T07:22:16.837Z,86.20
2017-09-20T07:24:45.151Z,86.35
2017-09-20T07:27:13.498Z,85.89
2017-09-20T07:29:42.573Z,84.53
2017-09-20T07:32:10.891Z,84.20
2017-09-20T07:34:39.978Z,82.77
2017-09-20T07:37:09.056Z,81.67
2017-09-20T07:39:37.380Z,81.03
2017-09-20T07:42:05.686Z,80.55
2017-09-20T07:44:34.002Z,79.79
2017-09-20T07:47:03.085Z,78.95
2017-09-20T07:49:31.407Z,77.87
2017-09-20T07:51:59.718Z,77.23
2017-09-20T07:54:28.030Z,76.71
2017-09-20T07:56:57.128Z,75.71
2017-09-20T07:59:26.207Z,75.29
2017-09-20T08:01:55.300Z,74.36
2017-09-20T08:04:23.635Z,73.49
2017-09-20T08:06:51.965Z,70.12
2017-09-20T08:09:21.037Z,69.44
2017-09-20T08:11:49.368Z,68.63
2017-09-20T08:14:17.686Z,70.36
2017-09-20T08:16:46.029Z,71.09
2017-09-20T08:19:14.342Z,72.26
2017-09-20T08:21:42.647Z,71.00
2017-09-20T08:24:10.974Z,71.08
2017-09-20T08:26:39.277Z,72.07
2017-09-20T08:29:07.603Z,71.64
2017-09-20T08:31:35.919Z,69.91
2017-09-20T08:34:04.235Z,69.06
2017-09-20T08:36:33.314Z,71.71
2017-09-20T08:39:01.662Z,70.45
2017-09-20T08:41:29.970Z,70.99
2017-09-20T08:43:58.289Z,68.41
2017-09-20T08:46:26.605Z,68.57
2017-09-20T08:48:54.910Z,69.23
2017-09-20T08:51:24.730Z,69.87
2017-09-20T08:53:53.148Z,67.07
2017-09-20T08:56:21.469Z,67.57
2017-09-20T08:58:49.775Z,65.95
2017-09-20T09:01:18.851Z,64.72
2017-09-20T09:03:47.159Z,66.11
2017-09-20T09:06:15.478Z,65.13
2017-09-20T09:08:43.782Z,65.63
2017-09-20T09:11:12.118Z,63.67
2017-09-20T09:13:40.434Z,64.40
2017-09-20T09:16:08.745Z,61.26
2017-09-20T09:18:37.058Z,60.80
2017-09-20T09:21:05.364Z,60.69
2017-09-20T09:23:33.688Z,62.94
2017-09-20T09:26:01.986Z,56.48
2017-09-20T09:28:30.298Z,52.58
2017-09-20T09:30:58.610Z,49.85
2017-09-20T09:33:26.923Z,53.51
2017-09-20T09:35:55.223Z,58.64
2017-09-20T09:38:23.555Z,61.14
2017-09-20T09:40:51.858Z,60.48
2017-09-20T09:43:20.166Z,63.22
2017-09-20T09:45:48.473Z,63.46
2017-09-20T09:48:16.770Z,60.69
2017-09-20T09:50:45.093Z,51.36
2017-09-20T09:53:14.507Z,57.24
2017-09-20T09:55:43.596Z,54.17
2017-09-20T09:58:11.901Z,53.17
2017-09-20T10:00:40.225Z,51.27
2017-09-20T10:03:08.531Z,57.62
2017-09-20T10:05:37.600Z,61.38
2017-09-20T10:08:05.938Z,71.53
2017-09-20T10:10:34.243Z,73.90
2017-09-20T10:13:02.565Z,77.39
2017-09-20T10:15:31.635Z,78.39
2017-09-20T10:17:59.950Z,77.77
2017-09-20T10:20:28.275Z,76.26
2017-09-20T10:22:56.583Z,76.98
2017-09-20T10:25:24.883Z,75.46
2017-09-20T10:27:53.190Z,74.47
2017-09-20T10:30:21.594Z,74.18
2017-09-20T10:32:49.926Z,70.54
2017-09-20T10:35:18.256Z,68.33
2017-09-20T10:37:46.581Z,65.88
2017-09-20T10:40:14.886Z,57.69
2017-09-20T10:42:43.189Z,52.42
2017-09-20T10:45:11.506Z,51.13
2017-09-20T10:47:39.814Z,55.89
2017-09-20T10:50:08.130Z,62.71
2017-09-20T10:52:36.450Z,65.57
2017-09-20T10:55:04.758Z,68.00
2017-09-20T10:57:33.076Z,69.03
2017-09-20T11:00:02.199Z,67.76
2017-09-20T11:02:30.498Z,67.80
2017-09-20T11:04:58.798Z,69.44
2017-09-20T11:07:27.108Z,62.69
2017-09-20T11:09:56.196Z,60.88
2017-09-20T11:12:32.408Z,61.81
2017-09-20T11:17:28.297Z,64.28
2017-09-20T11:19:57.362Z,63.77
2017-09-20T11:22:25.734Z,64.70
2017-09-20T11:24:54.043Z,62.46
2017-09-20T11:27:23.110Z,63.77
2017-09-20T11:29:51.461Z,62.38
2017-09-20T11:32:19.772Z,59.71
2017-09-20T11:34:52.229Z,58.95
2017-09-20T11:37:20.542Z,54.93
2017-09-20T11:39:49.628Z,55.03
2017-09-20T11:42:17.945Z,57.80
2017-09-20T11:44:46.258Z,57.98
2017-09-20T11:47:14.569Z,58.65
2017-09-20T11:49:43.658Z,59.67
2017-09-20T11:52:11.958Z,59.01
2017-09-20T11:54:41.056Z,58.56
2017-09-20T11:57:10.130Z,58.91
2017-09-20T11:59:39.205Z,58.64
2017-09-20T12:02:07.521Z,57.07
2017-09-20T12:04:36.601Z,55.67
2017-09-20T12:07:05.677Z,53.16
2017-09-20T12:09:33.978Z,52.97
2017-09-20T12:12:03.066Z,53.41
2017-09-20T12:14:31.380Z,54.17
2017-09-20T12:16:59.716Z,53.31
2017-09-20T12:19:28.019Z,53.84
2017-09-20T12:21:56.360Z,51.84
2017-09-20T12:24:24.666Z,50.96
2017-09-20T12:26:53.737Z,49.54
2017-09-20T12:29:22.057Z,49.60
2017-09-20T12:31:50.362Z,50.98
2017-09-20T12:34:18.671Z,48.38
2017-09-20T12:36:46.977Z,47.70
2017-09-20T12:39:15.301Z,49.01
2017-09-20T12:41:43.601Z,49.24
2017-09-20T12:44:11.913Z,52.83
2017-09-20T12:46:40.204Z,55.59
2017-09-20T12:49:08.557Z,57.46
2017-09-20T12:51:37.626Z,58.47
2017-09-20T12:54:05.927Z,58.81
2017-09-20T12:56:35.018Z,60.77
2017-09-20T12:59:04.092Z,60.81
2017-09-20T13:01:32.393Z,61.47
2017-09-20T13:04:01.464Z,62.72
2017-09-20T13:06:29.787Z,63.82
2017-09-20T13:08:58.081Z,64.14
2017-09-20T13:11:26.409Z,63.91
2017-09-20T13:13:54.714Z,61.70
2017-09-20T13:16:23.012Z,57.29
2017-09-20T13:18:51.333Z,57.92
2017-09-20T13:21:19.628Z,57.36
2017-09-20T13:23:48.704Z,57.18
2017-09-20T13:26:17.001Z,57.12
2017-09-20T13:28:46.078Z,56.63
2017-09-20T13:31:14.371Z,57.47
2017-09-20T13:33:43.442Z,58.37
2017-09-20T13:36:11.780Z,58.51
2017-09-20T13:38:40.101Z,58.86
2017-09-20T13:41:08.409Z,59.29
2017-09-20T13:43:36.709Z,59.98
2017-09-20T13:46:05.014Z,59.68
2017-09-20T13:48:33.320Z,60.60
2017-09-20T13:51:02.397Z,60.92
2017-09-20T13:53:30.691Z,60.50
2017-09-20T13:55:58.992Z,61.24
2017-09-20T13:58:27.286Z,60.74
2017-09-20T14:00:55.608Z,60.70
2017-09-20T14:03:23.905Z,60.18
2017-09-20T14:05:52.969Z,60.34
2017-09-20T14:08:21.264Z,60.39
2017-09-20T14:10:49.573Z,60.47
2017-09-20T14:13:17.886Z,59.88
2017-09-20T14:15:47.062Z,59.36
2017-09-20T14:18:15.372Z,59.59
2017-09-20T14:20:43.673Z,58.92
2017-09-20T14:23:11.997Z,59.27
2017-09-20T14:25:40.289Z,57.97
2017-09-20T14:28:08.587Z,59.07
2017-09-20T14:30:36.889Z,57.92
2017-09-20T14:33:05.964Z,58.24
2017-09-20T14:35:34.275Z,58.45
2017-09-20T14:38:02.619Z,57.98
2017-09-20T14:40:30.924Z,58.19
2017-09-20T14:42:59.995Z,58.73
2017-09-20T14:45:28.300Z,58.31
2017-09-20T14:47:57.368Z,59.36
2017-09-20T14:50:25.684Z,59.06
2017-09-20T14:52:53.980Z,58.80
2017-09-20T14:55:22.292Z,59.21
2017-09-20T14:57:50.601Z,59.53
2017-09-20T15:00:19.706Z,58.91
2017-09-20T15:02:48.023Z,59.14
2017-09-20T15:05:16.333Z,58.28
2017-09-20T15:07:44.644Z,58.61
2017-09-20T15:10:12.958Z,58.63
2017-09-20T15:12:41.269Z,58.83
2017-09-20T15:15:10.340Z,59.50
2017-09-20T15:17:38.641Z,60.10
2017-09-20T15:20:07.702Z,58.97
2017-09-20T15:22:36.029Z,58.86
2017-09-20T15:25:05.085Z,58.96
2017-09-20T15:27:33.396Z,58.32
2017-09-20T15:30:02.477Z,58.83
2017-09-20T15:32:30.768Z,58.21
2017-09-20T15:34:59.846Z,57.51
2017-09-20T15:37:28.146Z,56.13
2017-09-20T15:39:56.465Z,56.03
2017-09-20T15:42:24.756Z,55.90
2017-09-20T15:44:53.057Z,55.80
2017-09-20T15:47:21.397Z,56.26
2017-09-20T15:49:49.701Z,56.75
2017-09-20T15:52:17.989Z,56.66
2017-09-20T15:54:46.325Z,57.75
2017-09-20T15:57:14.630Z,57.83
2017-09-20T15:59:42.932Z,57.83
2017-09-20T16:02:12.002Z,58.28
2017-09-20T16:04:40.296Z,58.42
2017-09-20T16:07:09.381Z,60.74
2017-09-20T16:09:37.678Z,63.61
2017-09-20T16:12:06.009Z,64.72
2017-09-20T16:14:35.087Z,64.97
2017-09-20T16:17:03.458Z,65.35
2017-09-20T16:19:31.761Z,65.96
2017-09-20T16:22:00.089Z,66.42
2017-09-20T16:24:28.403Z,67.23
2017-09-20T16:26:56.709Z,67.23
2017-09-20T16:29:25.023Z,67.43
2017-09-20T16:31:53.324Z,67.33
2017-09-20T16:34:21.641Z,67.32
2017-09-20T16:36:49.942Z,67.29
2017-09-20T16:39:19.018Z,67.81
2017-09-20T16:41:47.321Z,67.45
2017-09-20T16:44:16.490Z,67.77
2017-09-20T16:46:44.785Z,68.00
2017-09-20T16:49:13.860Z,68.13
2017-09-20T16:51:42.156Z,68.29
2017-09-20T16:54:11.261Z,68.77
2017-09-20T16:56:40.328Z,69.14
2017-09-20T16:59:08.633Z,69.04
2017-09-20T17:01:37.701Z,69.86
2017-09-20T17:04:06.001Z,69.52
2017-09-20T17:06:35.072Z,69.87
2017-09-20T17:09:03.369Z,70.21
2017-09-20T17:11:32.441Z,70.76
2017-09-20T17:14:00.742Z,71.92
2017-09-20T17:16:29.840Z,72.79
2017-09-20T17:18:58.910Z,73.96
2017-09-20T17:21:27.250Z,73.92
2017-09-20T17:23:55.557Z,74.43
2017-09-20T17:26:23.856Z,74.72
2017-09-20T17:28:52.949Z,75.20
2017-09-20T17:31:22.046Z,75.75
2017-09-20T17:33:51.395Z,75.98
2017-09-20T17:36:19.729Z,76.11
2017-09-20T17:38:48.809Z,76.38
2017-09-20T17:41:17.115Z,76.77
2017-09-20T17:43:46.221Z,76.88
2017-09-20T17:46:14.533Z,76.92
2017-09-20T17:48:42.836Z,77.18
2017-09-20T17:51:11.152Z,77.11
2017-09-20T17:53:39.461Z,77.18
2017-09-20T17:56:07.781Z,77.23
2017-09-20T17:58:36.860Z,77.16
2017-09-20T18:01:05.180Z,77.56
2017-09-20T18:03:33.493Z,77.48
2017-09-20T18:06:01.802Z,77.91
2017-09-20T18:08:30.106Z,77.54
2017-09-20T18:10:58.440Z,77.85
2017-09-20T18:13:26.737Z,77.61
2017-09-20T18:15:55.053Z,77.86
2017-09-20T18:18:23.377Z,78.99
2017-09-20T18:20:51.675Z,78.87
2017-09-20T18:23:20.752Z,79.00
2017-09-20T18:25:49.080Z,78.99
2017-09-20T18:28:17.389Z,79.11
2017-09-20T18:30:45.685Z,79.05
2017-09-20T18:33:14.012Z,78.94
2017-09-20T18:35:42.353Z,79.47
2017-09-20T18:38:10.664Z,80.21
2017-09-20T18:40:38.965Z,80.84
2017-09-20T18:43:07.347Z,81.13
2017-09-20T18:45:35.656Z,81.55
2017-09-20T18:48:03.975Z,81.25
2017-09-20T18:50:32.294Z,80.85
2017-09-20T18:53:00.604Z,80.85
2017-09-20T18:55:29.676Z,81.11
2017-09-20T18:57:57.998Z,81.47
2017-09-20T19:00:26.315Z,81.26
2017-09-20T19:02:54.673Z,81.34
2017-09-20T19:05:22.976Z,80.78
2017-09-20T19:07:51.460Z,81.37
2017-09-20T19:10:19.815Z,81.46
2017-09-20T19:12:48.173Z,81.28
2017-09-20T19:15:16.594Z,82.11
2017-09-20T19:17:44.907Z,82.27
2017-09-20T19:20:13.985Z,81.23
2017-09-20T19:22:42.293Z,81.07
2017-09-20T19:25:10.605Z,80.55
2017-09-20T19:27:38.917Z,81.53
2017-09-20T19:30:07.277Z,81.23
2017-09-20T19:32:35.653Z,80.61
2017-09-20T19:35:04.733Z,80.85
2017-09-20T19:37:33.045Z,81.16
2017-09-20T19:40:01.351Z,80.89
2017-09-20T19:42:29.672Z,80.15
2017-09-20T19:44:58.747Z,79.71
2017-09-20T19:47:27.068Z,79.35
2017-09-20T19:49:55.376Z,79.29
2017-09-20T19:52:23.690Z,79.61
2017-09-20T19:54:52.000Z,78.94
2017-09-20T19:57:20.312Z,79.09
2017-09-20T19:59:48.614Z,79.04
2017-09-20T20:02:17.000Z,78.99
2017-09-20T20:04:46.089Z,79.41
2017-09-20T20:07:14.596Z,79.36
2017-09-20T20:09:42.975Z,78.98
2017-09-20T20:12:11.514Z,78.85
2017-09-20T20:14:40.038Z,78.85
2017-09-20T20:17:08.396Z,79.24
2017-09-20T20:19:36.795Z,79.56
2017-09-20T20:22:05.306Z,79.58
2017-09-20T20:24:34.602Z,79.95
2017-09-20T20:27:03.096Z,79.93
2017-09-20T20:29:32.371Z,80.40
2017-09-20T20:32:00.881Z,80.37
2017-09-20T20:34:29.279Z,80.31
2017-09-20T20:36:57.667Z,80.60
2017-09-20T20:39:26.043Z,81.18
2017-09-20T20:41:54.569Z,81.39
2017-09-20T20:44:23.093Z,81.89
2017-09-20T20:46:51.468Z,82.51
2017-09-20T20:49:19.985Z,83.25
2017-09-20T20:51:48.535Z,83.27
2017-09-20T20:54:16.896Z,83.01
2017-09-20T20:56:46.094Z,83.16
2017-09-20T20:59:15.231Z,83.33
2017-09-20T21:01:43.741Z,83.11
2017-09-20T21:04:12.288Z,82.72
2017-09-20T21:06:40.654Z,82.91
2017-09-20T21:09:09.035Z,83.40
2017-09-20T21:11:37.529Z,82.66
2017-09-20T21:14:05.905Z,81.98
2017-09-20T21:16:34.261Z,82.08
2017-09-20T21:19:02.677Z,81.93
2017-09-20T21:21:30.982Z,81.99
2017-09-20T21:23:59.288Z,81.98
2017-09-20T21:26:27.814Z,81.97
2017-09-20T21:28:56.128Z,81.75
2017-09-20T21:31:25.273Z,81.43
2017-09-20T21:33:53.645Z,81.53
2017-09-20T21:36:22.026Z,81.72
2017-09-20T21:38:50.330Z,81.72
2017-09-20T21:41:18.718Z,82.17
2017-09-20T21:43:47.033Z,82.15
2017-09-20T21:46:16.181Z,82.32
2017-09-20T21:48:44.539Z,82.50
2017-09-20T21:51:12.890Z,82.46
2017-09-20T21:53:41.977Z,82.56
2017-09-20T21:56:11.057Z,82.76
2017-09-20T21:58:39.394Z,82.85
2017-09-20T22:01:07.720Z,82.64
2017-09-20T22:03:36.822Z,82.88
2017-09-20T22:06:05.901Z,83.25
2017-09-20T22:08:34.237Z,83.10
2017-09-20T22:11:02.541Z,83.05
2017-09-20T22:13:30.882Z,82.90
2017-09-20T22:16:16.966Z,82.77
2017-09-20T22:19:03.063Z,82.63
2017-09-20T22:21:49.153Z,83.18
2017-09-20T22:24:35.268Z,82.84
2017-09-20T22:27:03.586Z,82.58
2017-09-20T22:29:31.899Z,82.57
2017-09-20T22:32:00.221Z,82.31
2017-09-20T22:34:28.548Z,82.58
2017-09-20T22:36:57.640Z,82.95
2017-09-20T22:39:25.950Z,83.10
2017-09-20T22:41:54.273Z,83.58
2017-09-20T22:44:22.573Z,83.68
2017-09-20T22:46:50.889Z,83.91
2017-09-20T22:49:19.211Z,83.85
2017-09-20T22:51:48.305Z,84.35
2017-09-20T22:54:16.618Z,84.69
2017-09-20T22:56:44.926Z,84.77
2017-09-20T22:59:13.254Z,84.44
2017-09-20T23:01:42.329Z,84.52
2017-09-20T23:04:10.648Z,84.53
2017-09-20T23:06:38.958Z,84.35
2017-09-20T23:09:07.278Z,84.30
2017-09-20T23:11:35.607Z,84.14
2017-09-20T23:14:03.942Z,84.04
2017-09-20T23:16:32.274Z,84.41
2017-09-20T23:19:00.616Z,84.67
2017-09-20T23:21:28.923Z,84.65
2017-09-20T23:23:57.244Z,84.37
2017-09-20T23:26:26.327Z,84.01
2017-09-20T23:28:55.415Z,84.16
2017-09-20T23:31:23.737Z,84.08
2017-09-20T23:33:52.049Z,84.61
2017-09-20T23:36:20.386Z,84.78
2017-09-20T23:38:48.778Z,84.66
2017-09-20T23:41:17.100Z,84.62
2017-09-20T23:43:45.420Z,84.28
2017-09-20T23:46:13.760Z,84.46
2017-09-20T23:48:42.079Z,84.71
2017-09-20T23:51:10.396Z,84.56
2017-09-20T23:53:38.719Z,85.02
2017-09-20T23:56:07.828Z,84.96
2017-09-20T23:58:36.142Z,84.95
